sensor_id;sensor_type;location;lat;lon;timestamp;temperature;humidity
15949;DHT22;14848;50.954;6.642;2022-10-16T00:01:19;12.50;99.90
15949;DHT22;14848;50.954;6.642;2022-10-16T00:03:45;12.50;99.90
15949;DHT22;14848;50.954;6.642;2022-10-16T00:06:12;12.50;99.90
15949;DHT22;14848;50.954;6.642;2022-10-16T00:08:38;12.50;99.90
15949;DHT22;14848;50.954;6.642;2022-10-16T00:11:10;12.50;99.90
15949;DHT22;14848;50.954;6.642;2022-10-16T00:13:37;12.60;99.90
15949;DHT22;14848;50.954;6.642;2022-10-16T00:16:04;12.60;99.90
15949;DHT22;14848;50.954;6.642;2022-10-16T00:18:30;12.70;99.90
15949;DHT22;14848;50.954;6.642;2022-10-16T00:21:04;12.70;99.90
15949;DHT22;14848;50.954;6.642;2022-10-16T00:23:31;12.80;99.90
15949;DHT22;14848;50.954;6.642;2022-10-16T00:26:03;12.80;99.90
15949;DHT22;14848;50.954;6.642;2022-10-16T00:28:29;12.90;99.90
15949;DHT22;14848;50.954;6.642;2022-10-16T00:30:55;12.80;99.90
15949;DHT22;14848;50.954;6.642;2022-10-16T00:33:21;12.80;99.90
15949;DHT22;14848;50.954;6.642;2022-10-16T00:35:47;12.80;99.90
15949;DHT22;14848;50.954;6.642;2022-10-16T00:38:13;12.80;99.90
15949;DHT22;14848;50.954;6.642;2022-10-16T00:40:39;12.70;99.90
15949;DHT22;14848;50.954;6.642;2022-10-16T00:43:34;12.70;99.90
15949;DHT22;14848;50.954;6.642;2022-10-16T00:45:58;12.60;99.90
15949;DHT22;14848;50.954;6.642;2022-10-16T00:48:24;12.50;99.90
15949;DHT22;14848;50.954;6.642;2022-10-16T00:50:50;12.50;99.90
15949;DHT22;14848;50.954;6.642;2022-10-16T00:53:16;12.40;99.90
15949;DHT22;14848;50.954;6.642;2022-10-16T00:55:42;12.40;99.90
15949;DHT22;14848;50.954;6.642;2022-10-16T00:58:09;12.40;99.90
15949;DHT22;14848;50.954;6.642;2022-10-16T01:00:35;12.40;99.90
15949;DHT22;14848;50.954;6.642;2022-10-16T01:03:02;12.30;99.90
15949;DHT22;14848;50.954;6.642;2022-10-16T01:05:49;12.30;99.90
15949;DHT22;14848;50.954;6.642;2022-10-16T01:08:24;12.30;99.90
15949;DHT22;14848;50.954;6.642;2022-10-16T01:13:55;12.30;99.90
15949;DHT22;14848;50.954;6.642;2022-10-16T01:17:02;12.30;99.90
15949;DHT22;14848;50.954;6.642;2022-10-16T01:20:01;12.30;99.90
15949;DHT22;14848;50.954;6.642;2022-10-16T01:22:37;12.30;99.90
15949;DHT22;14848;50.954;6.642;2022-10-16T01:25:09;12.20;99.90
15949;DHT22;14848;50.954;6.642;2022-10-16T01:27:37;12.20;99.90
15949;DHT22;14848;50.954;6.642;2022-10-16T01:30:11;12.30;99.90
15949;DHT22;14848;50.954;6.642;2022-10-16T01:32:50;12.20;99.90
15949;DHT22;14848;50.954;6.642;2022-10-16T01:35:34;12.20;99.90
15949;DHT22;14848;50.954;6.642;2022-10-16T01:40:31;12.30;99.90
15949;DHT22;14848;50.954;6.642;2022-10-16T01:43:05;12.30;99.90
15949;DHT22;14848;50.954;6.642;2022-10-16T01:45:33;12.30;99.90
15949;DHT22;14848;50.954;6.642;2022-10-16T01:48:01;12.30;99.90
15949;DHT22;14848;50.954;6.642;2022-10-16T01:50:32;12.30;99.90
15949;DHT22;14848;50.954;6.642;2022-10-16T01:52:59;12.20;99.90
15949;DHT22;14848;50.954;6.642;2022-10-16T01:55:31;12.20;99.90
15949;DHT22;14848;50.954;6.642;2022-10-16T01:57:59;12.30;99.90
15949;DHT22;14848;50.954;6.642;2022-10-16T02:00:27;12.30;99.90
15949;DHT22;14848;50.954;6.642;2022-10-16T02:02:54;12.30;99.90
15949;DHT22;14848;50.954;6.642;2022-10-16T02:05:43;12.30;99.90
15949;DHT22;14848;50.954;6.642;2022-10-16T02:08:10;12.30;99.90
15949;DHT22;14848;50.954;6.642;2022-10-16T02:10:37;12.40;99.90
15949;DHT22;14848;50.954;6.642;2022-10-16T02:13:13;12.40;99.90
15949;DHT22;14848;50.954;6.642;2022-10-16T02:15:41;12.40;99.90
15949;DHT22;14848;50.954;6.642;2022-10-16T02:18:07;12.40;99.90
15949;DHT22;14848;50.954;6.642;2022-10-16T02:20:40;12.50;99.90
15949;DHT22;14848;50.954;6.642;2022-10-16T02:23:12;12.50;99.90
15949;DHT22;14848;50.954;6.642;2022-10-16T02:25:43;12.50;99.90
15949;DHT22;14848;50.954;6.642;2022-10-16T02:28:44;12.50;99.90
15949;DHT22;14848;50.954;6.642;2022-10-16T02:31:12;12.50;99.90
15949;DHT22;14848;50.954;6.642;2022-10-16T02:33:42;12.50;99.90
15949;DHT22;14848;50.954;6.642;2022-10-16T02:36:09;12.50;99.90
15949;DHT22;14848;50.954;6.642;2022-10-16T02:38:35;12.50;99.90
15949;DHT22;14848;50.954;6.642;2022-10-16T02:41:01;12.50;99.90
15949;DHT22;14848;50.954;6.642;2022-10-16T02:43:27;12.50;99.90
15949;DHT22;14848;50.954;6.642;2022-10-16T02:45:53;12.50;99.90
15949;DHT22;14848;50.954;6.642;2022-10-16T02:48:18;12.60;99.90
15949;DHT22;14848;50.954;6.642;2022-10-16T02:50:44;12.50;99.90
15949;DHT22;14848;50.954;6.642;2022-10-16T02:53:10;12.50;99.90
15949;DHT22;14848;50.954;6.642;2022-10-16T02:55:35;12.40;99.90
15949;DHT22;14848;50.954;6.642;2022-10-16T02:58:01;12.40;99.90
15949;DHT22;14848;50.954;6.642;2022-10-16T03:00:26;12.40;99.90
15949;DHT22;14848;50.954;6.642;2022-10-16T03:02:52;12.30;99.90
15949;DHT22;14848;50.954;6.642;2022-10-16T03:05:18;12.20;99.90
15949;DHT22;14848;50.954;6.642;2022-10-16T03:07:43;12.20;99.90
15949;DHT22;14848;50.954;6.642;2022-10-16T03:10:09;12.20;99.90
15949;DHT22;14848;50.954;6.642;2022-10-16T03:12:35;12.10;99.90
15949;DHT22;14848;50.954;6.642;2022-10-16T03:15:00;12.10;99.90
15949;DHT22;14848;50.954;6.642;2022-10-16T03:17:26;12.10;99.90
15949;DHT22;14848;50.954;6.642;2022-10-16T03:19:52;12.10;99.90
15949;DHT22;14848;50.954;6.642;2022-10-16T03:22:17;12.00;99.90
15949;DHT22;14848;50.954;6.642;2022-10-16T03:24:43;12.00;99.90
15949;DHT22;14848;50.954;6.642;2022-10-16T03:27:09;12.00;99.90
15949;DHT22;14848;50.954;6.642;2022-10-16T03:29:34;12.00;99.90
15949;DHT22;14848;50.954;6.642;2022-10-16T03:32:00;12.00;99.90
15949;DHT22;14848;50.954;6.642;2022-10-16T03:34:26;12.00;99.90
15949;DHT22;14848;50.954;6.642;2022-10-16T03:36:53;11.90;99.90
15949;DHT22;14848;50.954;6.642;2022-10-16T03:39:19;12.00;99.90
15949;DHT22;14848;50.954;6.642;2022-10-16T03:41:44;11.90;99.90
15949;DHT22;14848;50.954;6.642;2022-10-16T03:44:12;11.90;99.90
15949;DHT22;14848;50.954;6.642;2022-10-16T03:46:37;11.90;99.90
15949;DHT22;14848;50.954;6.642;2022-10-16T03:49:03;11.90;99.90
15949;DHT22;14848;50.954;6.642;2022-10-16T03:51:28;11.90;99.90
15949;DHT22;14848;50.954;6.642;2022-10-16T03:53:54;11.90;99.90
15949;DHT22;14848;50.954;6.642;2022-10-16T03:56:20;12.00;99.90
15949;DHT22;14848;50.954;6.642;2022-10-16T03:58:45;12.00;99.90
15949;DHT22;14848;50.954;6.642;2022-10-16T04:01:11;12.10;99.90
15949;DHT22;14848;50.954;6.642;2022-10-16T04:03:37;12.10;99.90
15949;DHT22;14848;50.954;6.642;2022-10-16T04:06:02;12.10;99.90
15949;DHT22;14848;50.954;6.642;2022-10-16T04:08:28;12.10;99.90
15949;DHT22;14848;50.954;6.642;2022-10-16T04:10:53;12.00;99.90
15949;DHT22;14848;50.954;6.642;2022-10-16T04:13:19;12.00;99.90
15949;DHT22;14848;50.954;6.642;2022-10-16T04:15:45;11.50;99.90
15949;DHT22;14848;50.954;6.642;2022-10-16T04:18:11;12.00;99.90
15949;DHT22;14848;50.954;6.642;2022-10-16T04:20:37;11.90;99.90
15949;DHT22;14848;50.954;6.642;2022-10-16T04:23:03;11.90;99.90
15949;DHT22;14848;50.954;6.642;2022-10-16T04:25:30;11.80;99.90
15949;DHT22;14848;50.954;6.642;2022-10-16T04:27:56;11.80;99.90
15949;DHT22;14848;50.954;6.642;2022-10-16T04:30:22;11.70;99.90
15949;DHT22;14848;50.954;6.642;2022-10-16T04:32:51;11.70;99.90
15949;DHT22;14848;50.954;6.642;2022-10-16T04:35:18;11.70;99.90
15949;DHT22;14848;50.954;6.642;2022-10-16T04:37:44;11.70;99.90
15949;DHT22;14848;50.954;6.642;2022-10-16T04:40:10;11.70;99.90
15949;DHT22;14848;50.954;6.642;2022-10-16T04:42:36;11.60;99.90
15949;DHT22;14848;50.954;6.642;2022-10-16T04:45:02;11.60;99.90
15949;DHT22;14848;50.954;6.642;2022-10-16T04:47:28;11.50;99.90
15949;DHT22;14848;50.954;6.642;2022-10-16T04:49:54;11.50;99.90
15949;DHT22;14848;50.954;6.642;2022-10-16T04:52:20;11.50;99.90
15949;DHT22;14848;50.954;6.642;2022-10-16T04:54:46;11.50;99.90
15949;DHT22;14848;50.954;6.642;2022-10-16T04:57:12;11.50;99.90
15949;DHT22;14848;50.954;6.642;2022-10-16T04:59:38;11.50;99.90
15949;DHT22;14848;50.954;6.642;2022-10-16T05:02:04;11.50;99.90
15949;DHT22;14848;50.954;6.642;2022-10-16T05:04:29;11.40;99.90
15949;DHT22;14848;50.954;6.642;2022-10-16T05:06:55;11.40;99.90
15949;DHT22;14848;50.954;6.642;2022-10-16T05:09:20;11.40;99.90
15949;DHT22;14848;50.954;6.642;2022-10-16T05:11:46;11.40;99.90
15949;DHT22;14848;50.954;6.642;2022-10-16T05:14:12;11.50;99.90
15949;DHT22;14848;50.954;6.642;2022-10-16T05:16:38;11.40;99.90
15949;DHT22;14848;50.954;6.642;2022-10-16T05:19:03;11.40;99.90
15949;DHT22;14848;50.954;6.642;2022-10-16T05:21:29;11.30;99.90
15949;DHT22;14848;50.954;6.642;2022-10-16T05:23:55;11.30;99.90
15949;DHT22;14848;50.954;6.642;2022-10-16T05:26:20;11.30;99.90
15949;DHT22;14848;50.954;6.642;2022-10-16T05:28:46;11.20;99.90
15949;DHT22;14848;50.954;6.642;2022-10-16T05:31:12;11.30;99.90
15949;DHT22;14848;50.954;6.642;2022-10-16T05:33:38;11.30;99.90
15949;DHT22;14848;50.954;6.642;2022-10-16T05:36:05;11.30;99.90
15949;DHT22;14848;50.954;6.642;2022-10-16T05:38:32;11.40;99.90
15949;DHT22;14848;50.954;6.642;2022-10-16T05:40:58;11.50;99.90
15949;DHT22;14848;50.954;6.642;2022-10-16T05:43:24;11.50;99.90
15949;DHT22;14848;50.954;6.642;2022-10-16T05:46:03;11.50;99.90
15949;DHT22;14848;50.954;6.642;2022-10-16T05:48:29;11.50;99.90
15949;DHT22;14848;50.954;6.642;2022-10-16T05:51:04;11.50;99.90
15949;DHT22;14848;50.954;6.642;2022-10-16T05:53:31;11.50;99.90
15949;DHT22;14848;50.954;6.642;2022-10-16T05:55:57;11.50;99.90
15949;DHT22;14848;50.954;6.642;2022-10-16T05:58:24;11.50;99.90
15949;DHT22;14848;50.954;6.642;2022-10-16T06:00:58;11.50;99.90
15949;DHT22;14848;50.954;6.642;2022-10-16T06:03:24;11.50;99.90
15949;DHT22;14848;50.954;6.642;2022-10-16T06:05:51;11.50;99.90
15949;DHT22;14848;50.954;6.642;2022-10-16T06:08:17;11.60;99.90
15949;DHT22;14848;50.954;6.642;2022-10-16T06:10:43;11.60;99.90
15949;DHT22;14848;50.954;6.642;2022-10-16T06:13:09;11.60;99.90
15949;DHT22;14848;50.954;6.642;2022-10-16T06:15:35;11.60;99.90
15949;DHT22;14848;50.954;6.642;2022-10-16T06:18:01;11.60;99.90
15949;DHT22;14848;50.954;6.642;2022-10-16T06:20:26;11.60;99.90
15949;DHT22;14848;50.954;6.642;2022-10-16T06:22:52;11.60;99.90
15949;DHT22;14848;50.954;6.642;2022-10-16T06:25:17;11.60;99.90
15949;DHT22;14848;50.954;6.642;2022-10-16T06:27:43;11.70;99.90
15949;DHT22;14848;50.954;6.642;2022-10-16T06:30:09;11.70;99.90
15949;DHT22;14848;50.954;6.642;2022-10-16T06:32:35;11.70;99.90
15949;DHT22;14848;50.954;6.642;2022-10-16T06:35:00;11.70;99.90
15949;DHT22;14848;50.954;6.642;2022-10-16T06:37:27;11.80;99.90
15949;DHT22;14848;50.954;6.642;2022-10-16T06:39:52;11.90;99.90
15949;DHT22;14848;50.954;6.642;2022-10-16T06:42:19;12.00;99.90
15949;DHT22;14848;50.954;6.642;2022-10-16T06:44:44;12.00;99.90
15949;DHT22;14848;50.954;6.642;2022-10-16T06:47:10;12.10;99.90
15949;DHT22;14848;50.954;6.642;2022-10-16T06:49:36;12.20;99.90
15949;DHT22;14848;50.954;6.642;2022-10-16T06:52:02;12.30;99.90
15949;DHT22;14848;50.954;6.642;2022-10-16T06:54:28;12.30;99.90
15949;DHT22;14848;50.954;6.642;2022-10-16T06:56:54;12.40;99.90
15949;DHT22;14848;50.954;6.642;2022-10-16T06:59:21;12.50;99.90
15949;DHT22;14848;50.954;6.642;2022-10-16T07:01:46;12.70;99.90
15949;DHT22;14848;50.954;6.642;2022-10-16T07:04:12;12.70;99.90
15949;DHT22;14848;50.954;6.642;2022-10-16T07:06:39;12.80;99.90
15949;DHT22;14848;50.954;6.642;2022-10-16T07:09:08;12.90;99.90
15949;DHT22;14848;50.954;6.642;2022-10-16T07:11:36;12.90;99.90
15949;DHT22;14848;50.954;6.642;2022-10-16T07:14:02;13.10;99.90
15949;DHT22;14848;50.954;6.642;2022-10-16T07:16:29;13.20;99.90
15949;DHT22;14848;50.954;6.642;2022-10-16T07:18:56;13.30;99.90
15949;DHT22;14848;50.954;6.642;2022-10-16T07:21:25;13.40;99.90
15949;DHT22;14848;50.954;6.642;2022-10-16T07:23:55;13.40;99.90
15949;DHT22;14848;50.954;6.642;2022-10-16T07:26:23;13.50;99.90
15949;DHT22;14848;50.954;6.642;2022-10-16T07:28:49;13.50;99.90
15949;DHT22;14848;50.954;6.642;2022-10-16T07:31:17;13.50;99.90
15949;DHT22;14848;50.954;6.642;2022-10-16T07:33:44;13.60;99.90
15949;DHT22;14848;50.954;6.642;2022-10-16T07:36:11;13.60;99.90
15949;DHT22;14848;50.954;6.642;2022-10-16T07:38:37;13.60;99.90
15949;DHT22;14848;50.954;6.642;2022-10-16T07:41:06;13.60;99.90
15949;DHT22;14848;50.954;6.642;2022-10-16T07:43:32;13.60;99.90
15949;DHT22;14848;50.954;6.642;2022-10-16T07:45:59;13.60;99.90
15949;DHT22;14848;50.954;6.642;2022-10-16T07:48:30;13.60;99.90
15949;DHT22;14848;50.954;6.642;2022-10-16T07:51:00;13.60;99.90
15949;DHT22;14848;50.954;6.642;2022-10-16T07:53:26;13.60;99.90
15949;DHT22;14848;50.954;6.642;2022-10-16T07:55:56;13.70;99.90
15949;DHT22;14848;50.954;6.642;2022-10-16T07:58:23;13.70;99.90
15949;DHT22;14848;50.954;6.642;2022-10-16T08:00:49;13.90;99.90
15949;DHT22;14848;50.954;6.642;2022-10-16T08:03:15;14.00;99.90
15949;DHT22;14848;50.954;6.642;2022-10-16T08:05:41;14.10;99.90
15949;DHT22;14848;50.954;6.642;2022-10-16T08:08:15;14.30;99.90
15949;DHT22;14848;50.954;6.642;2022-10-16T08:10:41;14.50;99.90
15949;DHT22;14848;50.954;6.642;2022-10-16T08:13:07;14.60;99.90
15949;DHT22;14848;50.954;6.642;2022-10-16T08:15:33;14.70;99.90
15949;DHT22;14848;50.954;6.642;2022-10-16T08:18:03;14.70;99.90
15949;DHT22;14848;50.954;6.642;2022-10-16T08:20:31;14.70;99.90
15949;DHT22;14848;50.954;6.642;2022-10-16T08:22:56;14.80;99.90
15949;DHT22;14848;50.954;6.642;2022-10-16T08:25:23;14.90;99.90
15949;DHT22;14848;50.954;6.642;2022-10-16T08:27:49;15.00;99.90
15949;DHT22;14848;50.954;6.642;2022-10-16T08:30:17;15.20;99.90
15949;DHT22;14848;50.954;6.642;2022-10-16T08:32:42;15.30;99.90
15949;DHT22;14848;50.954;6.642;2022-10-16T08:35:12;15.40;99.90
15949;DHT22;14848;50.954;6.642;2022-10-16T08:37:38;15.50;99.90
15949;DHT22;14848;50.954;6.642;2022-10-16T08:40:06;15.60;99.90
15949;DHT22;14848;50.954;6.642;2022-10-16T08:50:43;15.80;99.90
15949;DHT22;14848;50.954;6.642;2022-10-16T08:53:15;15.80;99.90
15949;DHT22;14848;50.954;6.642;2022-10-16T08:55:52;15.80;99.90
15949;DHT22;14848;50.954;6.642;2022-10-16T08:58:25;15.90;99.90
15949;DHT22;14848;50.954;6.642;2022-10-16T09:01:01;16.00;99.90
15949;DHT22;14848;50.954;6.642;2022-10-16T09:16:58;16.60;99.90
15949;DHT22;14848;50.954;6.642;2022-10-16T09:19:35;16.60;99.90
15949;DHT22;14848;50.954;6.642;2022-10-16T09:22:12;16.70;99.90
15949;DHT22;14848;50.954;6.642;2022-10-16T09:27:11;16.90;99.90
15949;DHT22;14848;50.954;6.642;2022-10-16T09:29:37;16.90;99.90
15949;DHT22;14848;50.954;6.642;2022-10-16T09:32:16;16.90;99.90
15949;DHT22;14848;50.954;6.642;2022-10-16T09:34:52;16.90;99.90
15949;DHT22;14848;50.954;6.642;2022-10-16T09:37:20;17.00;99.90
15949;DHT22;14848;50.954;6.642;2022-10-16T09:39:54;17.00;99.90
15949;DHT22;14848;50.954;6.642;2022-10-16T09:42:27;17.10;99.90
15949;DHT22;14848;50.954;6.642;2022-10-16T09:44:56;17.10;99.90
15949;DHT22;14848;50.954;6.642;2022-10-16T09:47:27;17.20;99.90
15949;DHT22;14848;50.954;6.642;2022-10-16T09:49:55;17.20;99.90
15949;DHT22;14848;50.954;6.642;2022-10-16T09:52:24;17.30;99.90
15949;DHT22;14848;50.954;6.642;2022-10-16T09:54:58;17.30;99.90
15949;DHT22;14848;50.954;6.642;2022-10-16T09:57:24;17.40;99.90
15949;DHT22;14848;50.954;6.642;2022-10-16T09:59:55;17.60;99.90
15949;DHT22;14848;50.954;6.642;2022-10-16T10:02:37;17.60;99.90
15949;DHT22;14848;50.954;6.642;2022-10-16T10:05:05;17.70;99.90
15949;DHT22;14848;50.954;6.642;2022-10-16T10:07:43;17.80;99.90
15949;DHT22;14848;50.954;6.642;2022-10-16T10:10:22;17.90;99.90
15949;DHT22;14848;50.954;6.642;2022-10-16T10:12:48;18.00;99.90
15949;DHT22;14848;50.954;6.642;2022-10-16T10:15:14;18.20;99.90
15949;DHT22;14848;50.954;6.642;2022-10-16T10:17:57;18.20;99.90
15949;DHT22;14848;50.954;6.642;2022-10-16T10:20:34;18.20;99.90
15949;DHT22;14848;50.954;6.642;2022-10-16T10:23:01;18.10;99.90
15949;DHT22;14848;50.954;6.642;2022-10-16T10:31:20;18.60;99.90
15949;DHT22;14848;50.954;6.642;2022-10-16T10:36:46;18.50;99.90
15949;DHT22;14848;50.954;6.642;2022-10-16T10:39:35;18.60;99.90
15949;DHT22;14848;50.954;6.642;2022-10-16T10:42:34;18.60;99.90
15949;DHT22;14848;50.954;6.642;2022-10-16T10:53:25;18.40;99.90
15949;DHT22;14848;50.954;6.642;2022-10-16T10:56:14;18.40;99.90
15949;DHT22;14848;50.954;6.642;2022-10-16T11:07:17;18.50;99.90
15949;DHT22;14848;50.954;6.642;2022-10-16T11:09:51;18.50;99.90
15949;DHT22;14848;50.954;6.642;2022-10-16T11:12:33;18.70;99.90
15949;DHT22;14848;50.954;6.642;2022-10-16T11:15:14;18.70;99.90
15949;DHT22;14848;50.954;6.642;2022-10-16T11:17:47;18.70;99.90
15949;DHT22;14848;50.954;6.642;2022-10-16T11:20:16;18.90;99.90
15949;DHT22;14848;50.954;6.642;2022-10-16T11:22:51;18.90;99.90
15949;DHT22;14848;50.954;6.642;2022-10-16T11:28:06;19.00;99.90
15949;DHT22;14848;50.954;6.642;2022-10-16T11:30:47;19.00;99.90
15949;DHT22;14848;50.954;6.642;2022-10-16T11:33:20;19.00;99.90
15949;DHT22;14848;50.954;6.642;2022-10-16T11:41:49;19.00;99.90
15949;DHT22;14848;50.954;6.642;2022-10-16T11:45:07;19.00;99.90
15949;DHT22;14848;50.954;6.642;2022-10-16T11:55:24;19.60;99.90
15949;DHT22;14848;50.954;6.642;2022-10-16T11:58:29;19.70;99.90
15949;DHT22;14848;50.954;6.642;2022-10-16T12:08:54;19.40;99.90
15949;DHT22;14848;50.954;6.642;2022-10-16T12:16:54;19.70;99.90
15949;DHT22;14848;50.954;6.642;2022-10-16T12:19:21;19.80;99.90
15949;DHT22;14848;50.954;6.642;2022-10-16T12:21:48;19.80;99.90
15949;DHT22;14848;50.954;6.642;2022-10-16T12:24:38;19.60;99.90
15949;DHT22;14848;50.954;6.642;2022-10-16T12:27:29;19.60;99.90
15949;DHT22;14848;50.954;6.642;2022-10-16T12:30:00;19.60;99.90
15949;DHT22;14848;50.954;6.642;2022-10-16T12:32:35;19.50;99.90
15949;DHT22;14848;50.954;6.642;2022-10-16T12:35:03;19.50;99.90
15949;DHT22;14848;50.954;6.642;2022-10-16T12:37:37;19.60;99.90
15949;DHT22;14848;50.954;6.642;2022-10-16T12:40:25;19.80;99.90
15949;DHT22;14848;50.954;6.642;2022-10-16T12:42:51;20.10;99.90
15949;DHT22;14848;50.954;6.642;2022-10-16T12:45:33;20.40;99.90
15949;DHT22;14848;50.954;6.642;2022-10-16T12:48:01;20.80;99.90
15949;DHT22;14848;50.954;6.642;2022-10-16T12:55:21;20.90;99.90
15949;DHT22;14848;50.954;6.642;2022-10-16T13:11:37;20.40;99.90
15949;DHT22;14848;50.954;6.642;2022-10-16T13:22:18;20.40;99.90
15949;DHT22;14848;50.954;6.642;2022-10-16T13:30:12;20.40;99.90
15949;DHT22;14848;50.954;6.642;2022-10-16T13:32:39;20.50;99.90
15949;DHT22;14848;50.954;6.642;2022-10-16T13:35:22;20.50;99.90
15949;DHT22;14848;50.954;6.642;2022-10-16T13:37:48;20.50;99.90
15949;DHT22;14848;50.954;6.642;2022-10-16T13:40:24;20.40;99.90
15949;DHT22;14848;50.954;6.642;2022-10-16T13:42:51;20.30;99.90
15949;DHT22;14848;50.954;6.642;2022-10-16T13:45:25;20.40;99.90
15949;DHT22;14848;50.954;6.642;2022-10-16T13:48:05;20.20;99.90
15949;DHT22;14848;50.954;6.642;2022-10-16T13:50:33;20.10;99.90
15949;DHT22;14848;50.954;6.642;2022-10-16T13:53:14;20.20;99.90
15949;DHT22;14848;50.954;6.642;2022-10-16T13:55:40;20.40;99.90
15949;DHT22;14848;50.954;6.642;2022-10-16T13:58:10;20.40;99.90
15949;DHT22;14848;50.954;6.642;2022-10-16T14:00:37;20.40;99.90
15949;DHT22;14848;50.954;6.642;2022-10-16T14:03:13;20.40;99.90
15949;DHT22;14848;50.954;6.642;2022-10-16T14:05:51;20.50;99.90
15949;DHT22;14848;50.954;6.642;2022-10-16T14:08:17;20.40;99.90
15949;DHT22;14848;50.954;6.642;2022-10-16T14:10:51;20.50;99.90
15949;DHT22;14848;50.954;6.642;2022-10-16T14:13:21;20.50;99.90
15949;DHT22;14848;50.954;6.642;2022-10-16T14:15:51;20.40;99.90
15949;DHT22;14848;50.954;6.642;2022-10-16T14:18:23;20.30;99.90
15949;DHT22;14848;50.954;6.642;2022-10-16T14:20:50;20.30;99.90
15949;DHT22;14848;50.954;6.642;2022-10-16T14:23:37;20.20;99.90
15949;DHT22;14848;50.954;6.642;2022-10-16T14:26:27;20.20;99.90
15949;DHT22;14848;50.954;6.642;2022-10-16T14:29:14;20.10;99.90
15949;DHT22;14848;50.954;6.642;2022-10-16T14:31:40;20.10;99.90
15949;DHT22;14848;50.954;6.642;2022-10-16T14:36:50;20.10;99.90
15949;DHT22;14848;50.954;6.642;2022-10-16T14:39:21;20.10;99.90
15949;DHT22;14848;50.954;6.642;2022-10-16T14:41:49;20.10;99.90
15949;DHT22;14848;50.954;6.642;2022-10-16T14:44:17;20.10;99.90
15949;DHT22;14848;50.954;6.642;2022-10-16T14:46:43;20.00;99.90
15949;DHT22;14848;50.954;6.642;2022-10-16T14:51:36;20.30;99.90
15949;DHT22;14848;50.954;6.642;2022-10-16T14:54:03;20.40;99.90
15949;DHT22;14848;50.954;6.642;2022-10-16T14:56:31;20.40;99.90
15949;DHT22;14848;50.954;6.642;2022-10-16T14:59:00;20.40;99.90
15949;DHT22;14848;50.954;6.642;2022-10-16T15:01:26;20.30;99.90
15949;DHT22;14848;50.954;6.642;2022-10-16T15:03:52;20.30;99.90
15949;DHT22;14848;50.954;6.642;2022-10-16T15:06:20;20.30;99.90
15949;DHT22;14848;50.954;6.642;2022-10-16T15:08:46;20.30;99.90
15949;DHT22;14848;50.954;6.642;2022-10-16T15:11:18;20.30;99.90
15949;DHT22;14848;50.954;6.642;2022-10-16T15:13:45;20.20;99.90
15949;DHT22;14848;50.954;6.642;2022-10-16T15:16:15;20.20;99.90
15949;DHT22;14848;50.954;6.642;2022-10-16T15:18:42;20.20;99.90
15949;DHT22;14848;50.954;6.642;2022-10-16T15:21:28;20.10;99.90
15949;DHT22;14848;50.954;6.642;2022-10-16T15:23:54;20.00;99.90
15949;DHT22;14848;50.954;6.642;2022-10-16T15:26:19;19.90;99.90
15949;DHT22;14848;50.954;6.642;2022-10-16T15:28:45;19.80;99.90
15949;DHT22;14848;50.954;6.642;2022-10-16T15:31:11;19.80;99.90
15949;DHT22;14848;50.954;6.642;2022-10-16T15:33:37;19.80;99.90
15949;DHT22;14848;50.954;6.642;2022-10-16T15:36:03;19.70;99.90
15949;DHT22;14848;50.954;6.642;2022-10-16T15:38:29;19.60;99.90
15949;DHT22;14848;50.954;6.642;2022-10-16T15:40:56;19.50;99.90
15949;DHT22;14848;50.954;6.642;2022-10-16T15:43:22;19.50;99.90
15949;DHT22;14848;50.954;6.642;2022-10-16T15:46:09;19.40;99.90
15949;DHT22;14848;50.954;6.642;2022-10-16T15:48:36;19.40;99.90
15949;DHT22;14848;50.954;6.642;2022-10-16T15:51:06;19.40;99.90
15949;DHT22;14848;50.954;6.642;2022-10-16T15:53:32;19.30;99.90
15949;DHT22;14848;50.954;6.642;2022-10-16T15:56:02;19.30;99.90
15949;DHT22;14848;50.954;6.642;2022-10-16T15:58:28;19.30;99.90
15949;DHT22;14848;50.954;6.642;2022-10-16T16:00:55;19.30;99.90
15949;DHT22;14848;50.954;6.642;2022-10-16T16:03:21;19.20;99.90
15949;DHT22;14848;50.954;6.642;2022-10-16T16:05:47;19.20;99.90
15949;DHT22;14848;50.954;6.642;2022-10-16T16:08:12;19.20;99.90
15949;DHT22;14848;50.954;6.642;2022-10-16T16:10:38;19.10;99.90
15949;DHT22;14848;50.954;6.642;2022-10-16T16:13:04;19.20;99.90
15949;DHT22;14848;50.954;6.642;2022-10-16T16:15:29;19.00;99.90
15949;DHT22;14848;50.954;6.642;2022-10-16T16:17:55;19.00;99.90
15949;DHT22;14848;50.954;6.642;2022-10-16T16:20:21;18.90;99.90
15949;DHT22;14848;50.954;6.642;2022-10-16T16:22:46;18.90;99.90
15949;DHT22;14848;50.954;6.642;2022-10-16T16:25:12;18.80;99.90
15949;DHT22;14848;50.954;6.642;2022-10-16T16:27:38;18.80;99.90
15949;DHT22;14848;50.954;6.642;2022-10-16T16:30:05;18.70;99.90
15949;DHT22;14848;50.954;6.642;2022-10-16T16:32:33;18.60;99.90
15949;DHT22;14848;50.954;6.642;2022-10-16T16:34:58;18.60;99.90
15949;DHT22;14848;50.954;6.642;2022-10-16T16:37:24;18.60;99.90
15949;DHT22;14848;50.954;6.642;2022-10-16T16:39:50;18.50;99.90
15949;DHT22;14848;50.954;6.642;2022-10-16T16:42:16;18.40;99.90
15949;DHT22;14848;50.954;6.642;2022-10-16T16:44:42;18.40;99.90
15949;DHT22;14848;50.954;6.642;2022-10-16T16:47:08;18.40;99.90
15949;DHT22;14848;50.954;6.642;2022-10-16T16:49:34;18.40;99.90
15949;DHT22;14848;50.954;6.642;2022-10-16T16:52:00;18.30;99.90
15949;DHT22;14848;50.954;6.642;2022-10-16T16:54:25;18.30;99.90
15949;DHT22;14848;50.954;6.642;2022-10-16T16:56:51;18.30;99.90
15949;DHT22;14848;50.954;6.642;2022-10-16T16:59:19;18.30;99.90
15949;DHT22;14848;50.954;6.642;2022-10-16T17:01:45;18.30;99.90
15949;DHT22;14848;50.954;6.642;2022-10-16T17:04:14;18.20;99.90
15949;DHT22;14848;50.954;6.642;2022-10-16T17:06:40;18.20;99.90
15949;DHT22;14848;50.954;6.642;2022-10-16T17:09:06;18.10;99.90
15949;DHT22;14848;50.954;6.642;2022-10-16T17:11:33;18.10;99.90
15949;DHT22;14848;50.954;6.642;2022-10-16T17:14:00;18.00;99.90
15949;DHT22;14848;50.954;6.642;2022-10-16T17:16:31;18.00;99.90
15949;DHT22;14848;50.954;6.642;2022-10-16T17:19:02;18.00;99.90
15949;DHT22;14848;50.954;6.642;2022-10-16T17:21:28;18.00;99.90
15949;DHT22;14848;50.954;6.642;2022-10-16T17:23:55;18.00;99.90
15949;DHT22;14848;50.954;6.642;2022-10-16T17:26:20;18.00;99.90
15949;DHT22;14848;50.954;6.642;2022-10-16T17:28:51;18.00;99.90
15949;DHT22;14848;50.954;6.642;2022-10-16T17:31:24;18.00;99.90
15949;DHT22;14848;50.954;6.642;2022-10-16T17:33:49;18.00;99.90
15949;DHT22;14848;50.954;6.642;2022-10-16T17:36:17;18.00;99.90
15949;DHT22;14848;50.954;6.642;2022-10-16T17:38:43;18.00;99.90
15949;DHT22;14848;50.954;6.642;2022-10-16T18:42:30;18.00;99.90
15949;DHT22;14848;50.954;6.642;2022-10-16T18:44:56;17.60;99.90
15949;DHT22;14848;50.954;6.642;2022-10-16T18:47:21;17.60;99.90